sensor_id;sensor_type;location;lat;lon;timestamp;temperature;humidity
13652;DHT22;6899;51.546;6.912;2023-07-16T00:01:42;17.30;99.90
13652;DHT22;6899;51.546;6.912;2023-07-16T00:04:08;17.30;99.90
13652;DHT22;6899;51.546;6.912;2023-07-16T00:06:35;17.30;99.90
13652;DHT22;6899;51.546;6.912;2023-07-16T00:09:02;17.30;99.90
13652;DHT22;6899;51.546;6.912;2023-07-16T00:11:31;17.30;99.90
13652;DHT22;6899;51.546;6.912;2023-07-16T00:13:57;17.30;99.90
13652;DHT22;6899;51.546;6.912;2023-07-16T00:16:24;17.30;99.90
13652;DHT22;6899;51.546;6.912;2023-07-16T00:18:51;17.20;99.90
13652;DHT22;6899;51.546;6.912;2023-07-16T00:21:18;17.30;99.90
13652;DHT22;6899;51.546;6.912;2023-07-16T00:23:44;17.20;99.90
13652;DHT22;6899;51.546;6.912;2023-07-16T00:26:12;17.20;99.90
13652;DHT22;6899;51.546;6.912;2023-07-16T00:28:40;17.10;99.90
13652;DHT22;6899;51.546;6.912;2023-07-16T00:31:07;17.00;99.90
13652;DHT22;6899;51.546;6.912;2023-07-16T00:33:34;17.00;99.90
13652;DHT22;6899;51.546;6.912;2023-07-16T00:36:00;17.00;99.90
13652;DHT22;6899;51.546;6.912;2023-07-16T00:38:27;17.00;99.90
13652;DHT22;6899;51.546;6.912;2023-07-16T00:40:54;17.00;99.90
13652;DHT22;6899;51.546;6.912;2023-07-16T00:43:21;17.10;99.90
13652;DHT22;6899;51.546;6.912;2023-07-16T00:45:49;17.10;99.90
13652;DHT22;6899;51.546;6.912;2023-07-16T00:48:16;17.10;99.90
13652;DHT22;6899;51.546;6.912;2023-07-16T00:50:43;17.00;99.90
13652;DHT22;6899;51.546;6.912;2023-07-16T00:53:10;17.00;99.90
13652;DHT22;6899;51.546;6.912;2023-07-16T00:55:38;17.00;99.90
13652;DHT22;6899;51.546;6.912;2023-07-16T00:58:06;16.90;99.90
13652;DHT22;6899;51.546;6.912;2023-07-16T01:00:34;16.80;99.90
13652;DHT22;6899;51.546;6.912;2023-07-16T01:03:04;16.70;99.90
13652;DHT22;6899;51.546;6.912;2023-07-16T01:05:38;16.80;99.90
13652;DHT22;6899;51.546;6.912;2023-07-16T01:08:10;16.70;99.90
13652;DHT22;6899;51.546;6.912;2023-07-16T01:10:38;16.70;99.90
13652;DHT22;6899;51.546;6.912;2023-07-16T01:13:05;16.60;99.90
13652;DHT22;6899;51.546;6.912;2023-07-16T01:15:32;16.50;99.90
13652;DHT22;6899;51.546;6.912;2023-07-16T01:17:59;16.40;99.90
13652;DHT22;6899;51.546;6.912;2023-07-16T01:20:27;16.30;99.90
13652;DHT22;6899;51.546;6.912;2023-07-16T01:23:08;16.30;99.90
13652;DHT22;6899;51.546;6.912;2023-07-16T01:26:19;16.30;99.90
13652;DHT22;6899;51.546;6.912;2023-07-16T01:31:55;16.20;99.90
13652;DHT22;6899;51.546;6.912;2023-07-16T01:34:23;16.10;99.90
13652;DHT22;6899;51.546;6.912;2023-07-16T01:36:51;16.10;99.90
13652;DHT22;6899;51.546;6.912;2023-07-16T01:39:18;16.10;99.90
13652;DHT22;6899;51.546;6.912;2023-07-16T01:41:45;16.00;99.90
13652;DHT22;6899;51.546;6.912;2023-07-16T01:44:12;16.00;99.90
13652;DHT22;6899;51.546;6.912;2023-07-16T01:46:39;15.90;99.90
13652;DHT22;6899;51.546;6.912;2023-07-16T01:49:07;15.90;99.90
13652;DHT22;6899;51.546;6.912;2023-07-16T01:51:35;15.90;99.90
13652;DHT22;6899;51.546;6.912;2023-07-16T01:54:02;15.80;99.90
13652;DHT22;6899;51.546;6.912;2023-07-16T01:56:29;15.70;99.90
13652;DHT22;6899;51.546;6.912;2023-07-16T01:58:55;15.90;99.90
13652;DHT22;6899;51.546;6.912;2023-07-16T02:01:22;15.90;99.90
13652;DHT22;6899;51.546;6.912;2023-07-16T02:03:49;16.00;99.90
13652;DHT22;6899;51.546;6.912;2023-07-16T02:06:17;16.00;99.90
13652;DHT22;6899;51.546;6.912;2023-07-16T02:08:44;16.00;99.90
13652;DHT22;6899;51.546;6.912;2023-07-16T02:11:11;16.10;99.90
13652;DHT22;6899;51.546;6.912;2023-07-16T02:13:37;16.10;99.90
13652;DHT22;6899;51.546;6.912;2023-07-16T02:16:04;16.10;99.90
13652;DHT22;6899;51.546;6.912;2023-07-16T02:18:31;16.20;99.90
13652;DHT22;6899;51.546;6.912;2023-07-16T02:20:58;16.20;99.90
13652;DHT22;6899;51.546;6.912;2023-07-16T02:23:26;16.20;99.90
13652;DHT22;6899;51.546;6.912;2023-07-16T02:25:53;16.10;99.90
13652;DHT22;6899;51.546;6.912;2023-07-16T02:28:19;16.00;99.90
13652;DHT22;6899;51.546;6.912;2023-07-16T02:30:46;15.90;99.90
13652;DHT22;6899;51.546;6.912;2023-07-16T02:33:14;15.80;99.90
13652;DHT22;6899;51.546;6.912;2023-07-16T02:35:46;15.80;99.90
13652;DHT22;6899;51.546;6.912;2023-07-16T02:38:12;15.90;99.90
13652;DHT22;6899;51.546;6.912;2023-07-16T02:40:44;15.90;99.90
13652;DHT22;6899;51.546;6.912;2023-07-16T02:43:11;16.10;99.90
13652;DHT22;6899;51.546;6.912;2023-07-16T02:45:38;16.20;99.90
13652;DHT22;6899;51.546;6.912;2023-07-16T02:48:05;16.40;99.90
13652;DHT22;6899;51.546;6.912;2023-07-16T02:50:33;16.40;99.90
13652;DHT22;6899;51.546;6.912;2023-07-16T02:53:00;16.40;99.90
13652;DHT22;6899;51.546;6.912;2023-07-16T02:55:27;16.40;99.90
13652;DHT22;6899;51.546;6.912;2023-07-16T02:57:55;16.40;99.90
13652;DHT22;6899;51.546;6.912;2023-07-16T03:00:22;16.40;99.90
13652;DHT22;6899;51.546;6.912;2023-07-16T03:02:49;16.40;99.90
13652;DHT22;6899;51.546;6.912;2023-07-16T03:05:16;16.40;99.90
13652;DHT22;6899;51.546;6.912;2023-07-16T03:07:43;16.40;99.90
13652;DHT22;6899;51.546;6.912;2023-07-16T03:10:10;16.40;99.90
13652;DHT22;6899;51.546;6.912;2023-07-16T03:12:37;16.40;99.90
13652;DHT22;6899;51.546;6.912;2023-07-16T03:15:06;16.40;99.90
13652;DHT22;6899;51.546;6.912;2023-07-16T03:17:33;16.20;99.90
13652;DHT22;6899;51.546;6.912;2023-07-16T03:20:00;16.10;99.90
13652;DHT22;6899;51.546;6.912;2023-07-16T03:22:28;16.10;99.90
13652;DHT22;6899;51.546;6.912;2023-07-16T03:24:55;15.90;99.90
13652;DHT22;6899;51.546;6.912;2023-07-16T03:27:22;15.90;99.90
13652;DHT22;6899;51.546;6.912;2023-07-16T03:29:49;15.80;99.90
13652;DHT22;6899;51.546;6.912;2023-07-16T03:32:17;15.80;99.90
13652;DHT22;6899;51.546;6.912;2023-07-16T03:34:44;15.80;99.90
13652;DHT22;6899;51.546;6.912;2023-07-16T03:37:10;15.80;99.90
13652;DHT22;6899;51.546;6.912;2023-07-16T03:39:37;15.70;99.90
13652;DHT22;6899;51.546;6.912;2023-07-16T03:42:04;15.60;99.90
13652;DHT22;6899;51.546;6.912;2023-07-16T03:44:31;15.60;99.90
13652;DHT22;6899;51.546;6.912;2023-07-16T03:46:58;15.50;99.90
13652;DHT22;6899;51.546;6.912;2023-07-16T03:49:26;15.50;99.90
13652;DHT22;6899;51.546;6.912;2023-07-16T03:51:53;15.50;99.90
13652;DHT22;6899;51.546;6.912;2023-07-16T03:54:19;15.40;99.90
13652;DHT22;6899;51.546;6.912;2023-07-16T03:56:46;15.30;99.90
13652;DHT22;6899;51.546;6.912;2023-07-16T03:59:13;15.30;99.90
13652;DHT22;6899;51.546;6.912;2023-07-16T04:01:40;15.30;99.90
13652;DHT22;6899;51.546;6.912;2023-07-16T04:04:07;15.30;99.90
13652;DHT22;6899;51.546;6.912;2023-07-16T04:06:35;15.30;99.90
13652;DHT22;6899;51.546;6.912;2023-07-16T04:09:01;15.20;99.90
13652;DHT22;6899;51.546;6.912;2023-07-16T04:11:30;15.20;99.90
13652;DHT22;6899;51.546;6.912;2023-07-16T04:13:56;15.10;99.90
13652;DHT22;6899;51.546;6.912;2023-07-16T04:16:23;15.10;99.90
13652;DHT22;6899;51.546;6.912;2023-07-16T04:18:50;15.00;99.90
13652;DHT22;6899;51.546;6.912;2023-07-16T04:21:17;15.00;99.90
13652;DHT22;6899;51.546;6.912;2023-07-16T04:23:45;15.00;99.90
13652;DHT22;6899;51.546;6.912;2023-07-16T04:26:12;15.00;99.90
13652;DHT22;6899;51.546;6.912;2023-07-16T04:28:38;15.00;99.90
13652;DHT22;6899;51.546;6.912;2023-07-16T04:31:05;15.00;99.90
13652;DHT22;6899;51.546;6.912;2023-07-16T04:33:32;15.00;99.90
13652;DHT22;6899;51.546;6.912;2023-07-16T04:35:59;15.00;99.90
13652;DHT22;6899;51.546;6.912;2023-07-16T04:38:26;15.10;99.90
13652;DHT22;6899;51.546;6.912;2023-07-16T04:40:54;15.10;99.90
13652;DHT22;6899;51.546;6.912;2023-07-16T04:43:21;15.10;99.90
13652;DHT22;6899;51.546;6.912;2023-07-16T04:45:47;15.10;99.90
13652;DHT22;6899;51.546;6.912;2023-07-16T04:48:14;15.10;99.90
13652;DHT22;6899;51.546;6.912;2023-07-16T04:50:41;15.10;99.90
13652;DHT22;6899;51.546;6.912;2023-07-16T04:53:08;15.10;99.90
13652;DHT22;6899;51.546;6.912;2023-07-16T04:55:36;15.10;99.90
13652;DHT22;6899;51.546;6.912;2023-07-16T04:58:04;15.20;99.90
13652;DHT22;6899;51.546;6.912;2023-07-16T05:00:31;15.30;99.90
13652;DHT22;6899;51.546;6.912;2023-07-16T05:02:58;15.30;99.90
13652;DHT22;6899;51.546;6.912;2023-07-16T05:05:25;15.30;99.90
13652;DHT22;6899;51.546;6.912;2023-07-16T05:07:52;15.40;99.90
13652;DHT22;6899;51.546;6.912;2023-07-16T05:10:19;15.50;99.90
13652;DHT22;6899;51.546;6.912;2023-07-16T05:12:45;15.60;99.90
13652;DHT22;6899;51.546;6.912;2023-07-16T05:15:14;15.70;99.90
13652;DHT22;6899;51.546;6.912;2023-07-16T05:17:41;15.80;99.90
13652;DHT22;6899;51.546;6.912;2023-07-16T05:20:08;15.80;99.90
13652;DHT22;6899;51.546;6.912;2023-07-16T05:22:35;16.30;99.90
13652;DHT22;6899;51.546;6.912;2023-07-16T05:25:03;17.10;99.90
13652;DHT22;6899;51.546;6.912;2023-07-16T05:27:30;18.30;99.90
13652;DHT22;6899;51.546;6.912;2023-07-16T05:29:57;19.10;99.90
13652;DHT22;6899;51.546;6.912;2023-07-16T05:32:25;20.10;99.90
13652;DHT22;6899;51.546;6.912;2023-07-16T05:34:51;20.80;99.90
13652;DHT22;6899;51.546;6.912;2023-07-16T05:37:18;21.10;99.90
13652;DHT22;6899;51.546;6.912;2023-07-16T05:39:45;21.30;99.90
13652;DHT22;6899;51.546;6.912;2023-07-16T05:42:12;21.80;99.90
13652;DHT22;6899;51.546;6.912;2023-07-16T05:44:38;22.10;99.90
13652;DHT22;6899;51.546;6.912;2023-07-16T05:47:05;22.60;99.90
13652;DHT22;6899;51.546;6.912;2023-07-16T05:49:34;23.00;99.90
13652;DHT22;6899;51.546;6.912;2023-07-16T05:52:01;22.30;99.90
13652;DHT22;6899;51.546;6.912;2023-07-16T05:54:29;22.50;99.90
13652;DHT22;6899;51.546;6.912;2023-07-16T05:56:56;22.20;99.90
13652;DHT22;6899;51.546;6.912;2023-07-16T05:59:23;22.60;99.90
13652;DHT22;6899;51.546;6.912;2023-07-16T06:01:49;22.40;99.90
13652;DHT22;6899;51.546;6.912;2023-07-16T06:04:16;22.40;99.90
13652;DHT22;6899;51.546;6.912;2023-07-16T06:06:44;22.20;99.90
13652;DHT22;6899;51.546;6.912;2023-07-16T06:09:11;22.10;99.90
13652;DHT22;6899;51.546;6.912;2023-07-16T06:11:38;22.80;99.90
13652;DHT22;6899;51.546;6.912;2023-07-16T06:14:05;22.90;99.90
13652;DHT22;6899;51.546;6.912;2023-07-16T06:16:31;22.60;99.90
13652;DHT22;6899;51.546;6.912;2023-07-16T06:18:58;22.50;99.90
13652;DHT22;6899;51.546;6.912;2023-07-16T06:21:25;22.80;99.90
13652;DHT22;6899;51.546;6.912;2023-07-16T06:23:53;22.40;99.90
13652;DHT22;6899;51.546;6.912;2023-07-16T06:26:20;22.50;99.90
13652;DHT22;6899;51.546;6.912;2023-07-16T06:28:47;23.00;99.90
13652;DHT22;6899;51.546;6.912;2023-07-16T06:31:14;23.60;97.90
13652;DHT22;6899;51.546;6.912;2023-07-16T06:33:41;23.30;97.70
13652;DHT22;6899;51.546;6.912;2023-07-16T06:36:08;23.30;98.30
13652;DHT22;6899;51.546;6.912;2023-07-16T06:38:35;23.60;96.10
13652;DHT22;6899;51.546;6.912;2023-07-16T06:41:03;23.60;96.70
13652;DHT22;6899;51.546;6.912;2023-07-16T06:43:30;23.40;96.10
13652;DHT22;6899;51.546;6.912;2023-07-16T06:45:56;23.20;95.80
13652;DHT22;6899;51.546;6.912;2023-07-16T06:48:23;22.80;97.30
13652;DHT22;6899;51.546;6.912;2023-07-16T06:50:50;23.20;96.90
13652;DHT22;6899;51.546;6.912;2023-07-16T06:53:17;22.90;96.40
13652;DHT22;6899;51.546;6.912;2023-07-16T06:55:44;22.40;98.40
13652;DHT22;6899;51.546;6.912;2023-07-16T06:58:15;22.50;97.30
13652;DHT22;6899;51.546;6.912;2023-07-16T07:00:41;23.20;98.60
13652;DHT22;6899;51.546;6.912;2023-07-16T07:03:08;24.50;96.20
13652;DHT22;6899;51.546;6.912;2023-07-16T07:05:35;25.20;93.30
13652;DHT22;6899;51.546;6.912;2023-07-16T07:08:02;24.80;91.60
13652;DHT22;6899;51.546;6.912;2023-07-16T07:10:29;25.00;92.30
13652;DHT22;6899;51.546;6.912;2023-07-16T07:12:58;24.80;91.90
13652;DHT22;6899;51.546;6.912;2023-07-16T07:15:26;25.30;92.10
13652;DHT22;6899;51.546;6.912;2023-07-16T07:17:53;25.10;90.60
13652;DHT22;6899;51.546;6.912;2023-07-16T07:20:19;25.20;90.00
13652;DHT22;6899;51.546;6.912;2023-07-16T07:22:46;25.00;89.70
13652;DHT22;6899;51.546;6.912;2023-07-16T07:25:13;24.80;91.10
13652;DHT22;6899;51.546;6.912;2023-07-16T07:27:40;25.40;91.50
13652;DHT22;6899;51.546;6.912;2023-07-16T07:30:08;25.20;90.00
13652;DHT22;6899;51.546;6.912;2023-07-16T07:32:37;25.60;88.10
13652;DHT22;6899;51.546;6.912;2023-07-16T07:35:04;26.10;88.00
13652;DHT22;6899;51.546;6.912;2023-07-16T07:37:31;25.70;84.90
13652;DHT22;6899;51.546;6.912;2023-07-16T07:39:59;25.50;84.60
13652;DHT22;6899;51.546;6.912;2023-07-16T07:42:25;25.60;84.50
13652;DHT22;6899;51.546;6.912;2023-07-16T07:44:53;24.90;85.60
13652;DHT22;6899;51.546;6.912;2023-07-16T07:47:20;25.10;86.30
13652;DHT22;6899;51.546;6.912;2023-07-16T07:49:48;25.20;83.60
13652;DHT22;6899;51.546;6.912;2023-07-16T07:52:15;24.80;84.80
13652;DHT22;6899;51.546;6.912;2023-07-16T07:54:42;24.60;86.30
13652;DHT22;6899;51.546;6.912;2023-07-16T07:57:09;24.90;88.60
13652;DHT22;6899;51.546;6.912;2023-07-16T07:59:36;24.80;83.60
13652;DHT22;6899;51.546;6.912;2023-07-16T08:02:02;24.60;85.60
13652;DHT22;6899;51.546;6.912;2023-07-16T08:04:29;24.80;86.00
13652;DHT22;6899;51.546;6.912;2023-07-16T08:06:58;25.00;84.20
13652;DHT22;6899;51.546;6.912;2023-07-16T08:09:26;24.80;86.00
13652;DHT22;6899;51.546;6.912;2023-07-16T08:11:52;24.90;86.90
13652;DHT22;6899;51.546;6.912;2023-07-16T08:14:19;25.20;83.50
13652;DHT22;6899;51.546;6.912;2023-07-16T08:16:46;24.80;87.20
13652;DHT22;6899;51.546;6.912;2023-07-16T08:19:13;24.50;87.10
13652;DHT22;6899;51.546;6.912;2023-07-16T08:21:39;24.10;89.50
13652;DHT22;6899;51.546;6.912;2023-07-16T08:24:08;23.90;88.90
13652;DHT22;6899;51.546;6.912;2023-07-16T08:26:34;24.00;89.70
13652;DHT22;6899;51.546;6.912;2023-07-16T08:29:01;24.40;91.60
13652;DHT22;6899;51.546;6.912;2023-07-16T08:31:29;24.70;88.70
13652;DHT22;6899;51.546;6.912;2023-07-16T08:33:56;25.30;85.20
13652;DHT22;6899;51.546;6.912;2023-07-16T08:36:22;24.90;84.20
13652;DHT22;6899;51.546;6.912;2023-07-16T08:38:50;24.10;85.40
13652;DHT22;6899;51.546;6.912;2023-07-16T08:41:18;23.60;90.20
13652;DHT22;6899;51.546;6.912;2023-07-16T08:43:46;23.80;90.10
13652;DHT22;6899;51.546;6.912;2023-07-16T08:46:14;23.60;88.40
13652;DHT22;6899;51.546;6.912;2023-07-16T08:48:41;24.10;90.10
13652;DHT22;6899;51.546;6.912;2023-07-16T08:51:09;24.40;88.80
13652;DHT22;6899;51.546;6.912;2023-07-16T08:53:37;24.80;83.60
13652;DHT22;6899;51.546;6.912;2023-07-16T08:56:04;24.70;84.90
13652;DHT22;6899;51.546;6.912;2023-07-16T08:58:32;24.50;84.00
13652;DHT22;6899;51.546;6.912;2023-07-16T09:01:00;24.20;83.40
13652;DHT22;6899;51.546;6.912;2023-07-16T09:03:27;23.90;88.50
13652;DHT22;6899;51.546;6.912;2023-07-16T09:05:54;24.10;86.90
13652;DHT22;6899;51.546;6.912;2023-07-16T09:08:21;24.40;86.70
13652;DHT22;6899;51.546;6.912;2023-07-16T09:10:54;24.50;87.20
13652;DHT22;6899;51.546;6.912;2023-07-16T09:13:21;25.10;84.90
13652;DHT22;6899;51.546;6.912;2023-07-16T09:15:53;25.70;82.60
13652;DHT22;6899;51.546;6.912;2023-07-16T09:18:21;25.60;80.80
13652;DHT22;6899;51.546;6.912;2023-07-16T09:20:48;25.50;81.70
13652;DHT22;6899;51.546;6.912;2023-07-16T09:23:17;26.10;79.30
13652;DHT22;6899;51.546;6.912;2023-07-16T09:25:44;26.10;74.80
13652;DHT22;6899;51.546;6.912;2023-07-16T09:28:12;25.80;77.50
13652;DHT22;6899;51.546;6.912;2023-07-16T09:30:39;25.20;77.70
13652;DHT22;6899;51.546;6.912;2023-07-16T09:33:14;25.00;80.40
13652;DHT22;6899;51.546;6.912;2023-07-16T09:35:41;24.70;79.00
13652;DHT22;6899;51.546;6.912;2023-07-16T09:38:09;24.50;81.40
13652;DHT22;6899;51.546;6.912;2023-07-16T09:40:36;25.10;82.30
13652;DHT22;6899;51.546;6.912;2023-07-16T09:43:03;24.40;81.80
13652;DHT22;6899;51.546;6.912;2023-07-16T09:45:30;24.50;84.00
13652;DHT22;6899;51.546;6.912;2023-07-16T09:47:57;24.80;84.90
13652;DHT22;6899;51.546;6.912;2023-07-16T09:50:27;25.20;78.70
13652;DHT22;6899;51.546;6.912;2023-07-16T09:52:54;25.30;78.00
13652;DHT22;6899;51.546;6.912;2023-07-16T09:55:22;25.40;78.60
13652;DHT22;6899;51.546;6.912;2023-07-16T09:57:52;25.30;76.30
13652;DHT22;6899;51.546;6.912;2023-07-16T10:00:19;25.00;82.20
13652;DHT22;6899;51.546;6.912;2023-07-16T10:02:47;25.00;82.90
13652;DHT22;6899;51.546;6.912;2023-07-16T10:05:15;25.40;79.00
13652;DHT22;6899;51.546;6.912;2023-07-16T10:07:49;25.00;79.10
13652;DHT22;6899;51.546;6.912;2023-07-16T10:10:16;24.40;80.30
13652;DHT22;6899;51.546;6.912;2023-07-16T10:12:54;24.70;79.20
13652;DHT22;6899;51.546;6.912;2023-07-16T10:15:25;24.60;78.80
13652;DHT22;6899;51.546;6.912;2023-07-16T10:17:53;24.00;79.90
13652;DHT22;6899;51.546;6.912;2023-07-16T10:20:29;24.30;83.30
13652;DHT22;6899;51.546;6.912;2023-07-16T10:22:57;24.50;83.50
13652;DHT22;6899;51.546;6.912;2023-07-16T10:25:26;25.40;80.30
13652;DHT22;6899;51.546;6.912;2023-07-16T10:27:53;25.40;76.30
13652;DHT22;6899;51.546;6.912;2023-07-16T10:30:21;25.40;79.60
13652;DHT22;6899;51.546;6.912;2023-07-16T10:32:50;25.30;75.10
13652;DHT22;6899;51.546;6.912;2023-07-16T10:35:16;25.20;77.40
13652;DHT22;6899;51.546;6.912;2023-07-16T10:37:43;24.80;77.50
13652;DHT22;6899;51.546;6.912;2023-07-16T10:40:12;24.60;77.60
13652;DHT22;6899;51.546;6.912;2023-07-16T10:42:41;24.90;79.70
13652;DHT22;6899;51.546;6.912;2023-07-16T10:45:10;25.20;80.30
13652;DHT22;6899;51.546;6.912;2023-07-16T10:47:37;25.10;79.90
13652;DHT22;6899;51.546;6.912;2023-07-16T10:50:06;25.20;78.10
13652;DHT22;6899;51.546;6.912;2023-07-16T10:52:33;25.20;75.90
13652;DHT22;6899;51.546;6.912;2023-07-16T10:55:00;25.20;81.20
13652;DHT22;6899;51.546;6.912;2023-07-16T10:57:29;25.10;78.00
13652;DHT22;6899;51.546;6.912;2023-07-16T10:59:58;25.10;75.30
13652;DHT22;6899;51.546;6.912;2023-07-16T11:02:26;24.80;78.90
13652;DHT22;6899;51.546;6.912;2023-07-16T11:04:53;24.70;77.40
13652;DHT22;6899;51.546;6.912;2023-07-16T11:07:22;24.50;82.20
13652;DHT22;6899;51.546;6.912;2023-07-16T11:09:50;24.60;79.40
13652;DHT22;6899;51.546;6.912;2023-07-16T11:12:20;24.60;81.60
13652;DHT22;6899;51.546;6.912;2023-07-16T11:14:50;24.80;78.10
13652;DHT22;6899;51.546;6.912;2023-07-16T11:17:17;25.00;79.70
13652;DHT22;6899;51.546;6.912;2023-07-16T11:19:46;25.10;81.90
13652;DHT22;6899;51.546;6.912;2023-07-16T11:22:14;25.10;77.60
13652;DHT22;6899;51.546;6.912;2023-07-16T11:24:42;25.20;77.40
13652;DHT22;6899;51.546;6.912;2023-07-16T11:27:16;24.90;77.80
13652;DHT22;6899;51.546;6.912;2023-07-16T11:29:47;24.40;76.90
13652;DHT22;6899;51.546;6.912;2023-07-16T11:32:26;24.00;81.70
13652;DHT22;6899;51.546;6.912;2023-07-16T11:34:53;23.70;81.70
13652;DHT22;6899;51.546;6.912;2023-07-16T11:37:21;23.50;80.70
13652;DHT22;6899;51.546;6.912;2023-07-16T11:39:48;23.70;81.10
13652;DHT22;6899;51.546;6.912;2023-07-16T11:42:22;24.10;81.80
13652;DHT22;6899;51.546;6.912;2023-07-16T11:44:49;24.30;81.50
13652;DHT22;6899;51.546;6.912;2023-07-16T11:47:17;24.20;81.50
13652;DHT22;6899;51.546;6.912;2023-07-16T11:49:44;24.40;83.30
13652;DHT22;6899;51.546;6.912;2023-07-16T11:52:11;24.70;78.60
13652;DHT22;6899;51.546;6.912;2023-07-16T11:54:38;24.10;79.80
13652;DHT22;6899;51.546;6.912;2023-07-16T11:57:05;24.10;79.30
13652;DHT22;6899;51.546;6.912;2023-07-16T11:59:32;24.30;81.90
13652;DHT22;6899;51.546;6.912;2023-07-16T12:01:59;24.70;80.70
13652;DHT22;6899;51.546;6.912;2023-07-16T12:04:27;24.90;76.50
13652;DHT22;6899;51.546;6.912;2023-07-16T12:06:54;24.90;77.40
13652;DHT22;6899;51.546;6.912;2023-07-16T12:09:21;24.70;77.00
13652;DHT22;6899;51.546;6.912;2023-07-16T12:11:48;24.40;76.70
13652;DHT22;6899;51.546;6.912;2023-07-16T12:14:14;24.20;82.10
13652;DHT22;6899;51.546;6.912;2023-07-16T12:16:41;23.90;80.20
13652;DHT22;6899;51.546;6.912;2023-07-16T12:19:09;23.70;82.40
13652;DHT22;6899;51.546;6.912;2023-07-16T12:21:37;23.50;82.80
13652;DHT22;6899;51.546;6.912;2023-07-16T12:24:05;23.30;85.10
13652;DHT22;6899;51.546;6.912;2023-07-16T12:26:32;23.50;82.50
13652;DHT22;6899;51.546;6.912;2023-07-16T12:28:59;23.40;82.30
13652;DHT22;6899;51.546;6.912;2023-07-16T12:31:28;23.40;84.70
13652;DHT22;6899;51.546;6.912;2023-07-16T12:33:55;23.70;84.10
13652;DHT22;6899;51.546;6.912;2023-07-16T12:36:21;23.90;82.20
13652;DHT22;6899;51.546;6.912;2023-07-16T12:38:49;24.30;81.30
13652;DHT22;6899;51.546;6.912;2023-07-16T12:41:16;24.70;82.40
13652;DHT22;6899;51.546;6.912;2023-07-16T12:43:43;24.80;80.60
13652;DHT22;6899;51.546;6.912;2023-07-16T12:46:10;24.70;79.50
13652;DHT22;6899;51.546;6.912;2023-07-16T12:48:37;24.60;80.00
13652;DHT22;6899;51.546;6.912;2023-07-16T12:51:03;24.30;81.00
13652;DHT22;6899;51.546;6.912;2023-07-16T12:53:30;24.20;82.00
13652;DHT22;6899;51.546;6.912;2023-07-16T12:55:58;24.60;83.60
13652;DHT22;6899;51.546;6.912;2023-07-16T12:58:25;25.50;78.70
13652;DHT22;6899;51.546;6.912;2023-07-16T13:00:52;26.20;75.70
13652;DHT22;6899;51.546;6.912;2023-07-16T13:03:19;26.30;74.40
13652;DHT22;6899;51.546;6.912;2023-07-16T13:05:47;26.00;75.30
13652;DHT22;6899;51.546;6.912;2023-07-16T13:08:14;26.50;77.20
13652;DHT22;6899;51.546;6.912;2023-07-16T13:10:41;26.80;75.10
13652;DHT22;6899;51.546;6.912;2023-07-16T13:13:09;26.20;73.00
13652;DHT22;6899;51.546;6.912;2023-07-16T13:15:36;25.70;74.40
13652;DHT22;6899;51.546;6.912;2023-07-16T13:18:03;25.50;74.40
13652;DHT22;6899;51.546;6.912;2023-07-16T13:20:30;25.30;77.70
13652;DHT22;6899;51.546;6.912;2023-07-16T13:22:57;25.60;78.50
13652;DHT22;6899;51.546;6.912;2023-07-16T13:25:24;25.90;75.70
13652;DHT22;6899;51.546;6.912;2023-07-16T13:27:50;26.00;73.10
13652;DHT22;6899;51.546;6.912;2023-07-16T13:30:20;25.70;72.80
13652;DHT22;6899;51.546;6.912;2023-07-16T13:32:47;25.50;75.00
13652;DHT22;6899;51.546;6.912;2023-07-16T13:35:15;25.40;77.50
13652;DHT22;6899;51.546;6.912;2023-07-16T13:37:42;26.20;75.90
13652;DHT22;6899;51.546;6.912;2023-07-16T13:40:09;27.00;73.70
13652;DHT22;6899;51.546;6.912;2023-07-16T13:42:36;27.20;71.80
13652;DHT22;6899;51.546;6.912;2023-07-16T13:45:04;27.60;69.60
13652;DHT22;6899;51.546;6.912;2023-07-16T13:47:32;27.60;65.90
13652;DHT22;6899;51.546;6.912;2023-07-16T13:49:59;27.30;65.00
13652;DHT22;6899;51.546;6.912;2023-07-16T13:52:26;27.10;64.50
13652;DHT22;6899;51.546;6.912;2023-07-16T13:54:52;27.00;64.20
13652;DHT22;6899;51.546;6.912;2023-07-16T13:57:19;26.90;64.60
13652;DHT22;6899;51.546;6.912;2023-07-16T13:59:46;27.30;67.30
13652;DHT22;6899;51.546;6.912;2023-07-16T14:02:13;27.90;64.50
13652;DHT22;6899;51.546;6.912;2023-07-16T14:04:41;28.00;61.80
13652;DHT22;6899;51.546;6.912;2023-07-16T14:07:08;28.50;62.20
13652;DHT22;6899;51.546;6.912;2023-07-16T14:09:35;28.60;62.00
13652;DHT22;6899;51.546;6.912;2023-07-16T14:12:02;29.40;61.20
13652;DHT22;6899;51.546;6.912;2023-07-16T14:14:28;30.50;57.90
13652;DHT22;6899;51.546;6.912;2023-07-16T14:16:55;31.10;56.00
13652;DHT22;6899;51.546;6.912;2023-07-16T14:19:22;31.00;53.10
13652;DHT22;6899;51.546;6.912;2023-07-16T14:21:50;30.60;50.90
13652;DHT22;6899;51.546;6.912;2023-07-16T14:24:17;29.60;54.10
13652;DHT22;6899;51.546;6.912;2023-07-16T14:26:44;29.20;54.60
13652;DHT22;6899;51.546;6.912;2023-07-16T14:29:11;29.50;54.00
13652;DHT22;6899;51.546;6.912;2023-07-16T14:31:39;30.20;53.90
13652;DHT22;6899;51.546;6.912;2023-07-16T14:34:06;30.10;52.30
13652;DHT22;6899;51.546;6.912;2023-07-16T14:36:33;29.90;51.60
13652;DHT22;6899;51.546;6.912;2023-07-16T14:39:01;30.20;51.00
13652;DHT22;6899;51.546;6.912;2023-07-16T14:41:28;30.30;50.80
13652;DHT22;6899;51.546;6.912;2023-07-16T14:43:55;29.50;49.20
13652;DHT22;6899;51.546;6.912;2023-07-16T14:46:21;29.00;49.90
13652;DHT22;6899;51.546;6.912;2023-07-16T14:48:48;29.10;52.50
13652;DHT22;6899;51.546;6.912;2023-07-16T14:51:17;29.70;50.30
13652;DHT22;6899;51.546;6.912;2023-07-16T14:53:44;28.80;52.70
13652;DHT22;6899;51.546;6.912;2023-07-16T14:56:12;28.80;53.10
13652;DHT22;6899;51.546;6.912;2023-07-16T14:58:39;28.50;51.90
13652;DHT22;6899;51.546;6.912;2023-07-16T15:01:06;28.20;53.90
13652;DHT22;6899;51.546;6.912;2023-07-16T15:03:34;27.50;55.00
13652;DHT22;6899;51.546;6.912;2023-07-16T15:06:01;27.30;54.80
13652;DHT22;6899;51.546;6.912;2023-07-16T15:08:28;26.90;56.20
13652;DHT22;6899;51.546;6.912;2023-07-16T15:10:55;26.90;56.90
13652;DHT22;6899;51.546;6.912;2023-07-16T15:13:24;27.70;56.70
13652;DHT22;6899;51.546;6.912;2023-07-16T15:15:53;28.40;53.50
13652;DHT22;6899;51.546;6.912;2023-07-16T15:18:20;27.70;52.90
13652;DHT22;6899;51.546;6.912;2023-07-16T15:20:47;26.90;53.60
13652;DHT22;6899;51.546;6.912;2023-07-16T15:23:14;26.50;55.70
13652;DHT22;6899;51.546;6.912;2023-07-16T15:25:41;26.00;55.00
13652;DHT22;6899;51.546;6.912;2023-07-16T15:28:09;25.60;57.40
13652;DHT22;6899;51.546;6.912;2023-07-16T15:30:37;25.40;58.40
13652;DHT22;6899;51.546;6.912;2023-07-16T15:33:04;25.30;57.90
13652;DHT22;6899;51.546;6.912;2023-07-16T15:35:31;25.10;59.10
13652;DHT22;6899;51.546;6.912;2023-07-16T15:37:58;25.10;59.00
13652;DHT22;6899;51.546;6.912;2023-07-16T15:40:28;25.30;61.40
13652;DHT22;6899;51.546;6.912;2023-07-16T15:42:58;25.20;58.20
13652;DHT22;6899;51.546;6.912;2023-07-16T15:45:25;25.00;57.90
13652;DHT22;6899;51.546;6.912;2023-07-16T15:47:53;25.00;59.10
13652;DHT22;6899;51.546;6.912;2023-07-16T15:50:22;24.90;59.40